Time;durP1;ratioP1;P1;durP2;ratioP2;P2;SDS_P1;SDS_P2;PMS_P1;PMS_P2;Temp;Humidity;BMP_temperature;BMP_pressure;BME280_temperature;BME280_humidity;BME280_pressure;Samples;Min_cycle;Max_cycle;Signal;HPM_P1;HPM_P2
2023/10/04 00:00:18;;;;;;;9.10;3.65;;;13.90;99.90;;;;;;6242881;23;20004;-76
2023/10/04 00:02:54;;;;;;;9.25;3.03;;;13.90;99.90;;;;;;6242297;23;20004;-76
2023/10/04 00:05:21;;;;;;;13.38;4.05;;;14.00;99.90;;;;;;6242318;23;20034;-76
2023/10/04 00:07:49;;;;;;;6.63;3.38;;;14.00;99.90;;;;;;6242500;23;20030;-76
2023/10/04 00:10:16;;;;;;;9.18;3.50;;;13.90;99.90;;;;;;6242115;23;20319;-76
2023/10/04 00:12:43;;;;;;;6.95;3.35;;;13.90;99.90;;;;;;6242206;23;20004;-76
2023/10/04 00:15:10;;;;;;;11.88;4.60;;;13.90;99.90;;;;;;6215479;23;20014;-76
2023/10/04 00:17:44;;;;;;;5.88;3.60;;;13.90;99.90;;;;;;6216056;23;20000;-76
2023/10/04 00:20:16;;;;;;;10.00;3.28;;;13.90;99.90;;;;;;6241879;23;20004;-76
2023/10/04 00:22:43;;;;;;;7.78;3.63;;;13.90;99.90;;;;;;6215460;23;20015;-76
2023/10/04 00:25:23;;;;;;;5.97;2.97;;;13.90;99.90;;;;;;6242232;23;20106;-76
2023/10/04 00:27:52;;;;;;;9.90;3.47;;;13.90;99.90;;;;;;6215516;23;20476;-76
2023/10/04 00:30:18;;;;;;;9.35;3.60;;;13.90;99.90;;;;;;6215483;23;20004;-76
2023/10/04 00:32:46;;;;;;;12.13;3.55;;;13.80;99.90;;;;;;6242195;23;20020;-76
2023/10/04 00:35:15;;;;;;;7.05;3.10;;;13.80;99.90;;;;;;6214412;23;20012;-76
2023/10/04 00:37:43;;;;;;;8.02;3.15;;;13.80;99.90;;;;;;6215120;23;20011;-76
2023/10/04 00:40:19;;;;;;;8.63;3.15;;;13.80;99.90;;;;;;6215094;23;20016;-76
2023/10/04 00:42:47;;;;;;;13.02;2.75;;;13.80;99.90;;;;;;6215284;23;20046;-76
2023/10/04 00:45:13;;;;;;;6.72;3.00;;;13.70;99.90;;;;;;6215254;23;20004;-76
2023/10/04 00:47:47;;;;;;;7.75;3.20;;;13.70;99.90;;;;;;6215089;23;20010;-76
2023/10/04 00:50:17;;;;;;;;;;;13.80;99.90;;;;;;6242257;23;20012;-76
2023/10/04 00:52:48;;;;;;;6.65;2.95;;;13.80;99.90;;;;;;6241883;23;19903;-76
2023/10/04 00:55:17;;;;;;;8.32;2.83;;;13.70;99.90;;;;;;6242342;23;20030;-76
2023/10/04 00:57:44;;;;;;;5.72;2.78;;;13.70;99.90;;;;;;6241787;23;20512;-76
2023/10/04 01:00:11;;;;;;;10.75;3.33;;;13.80;99.90;;;;;;6241908;23;20008;-76
2023/10/04 01:02:37;;;;;;;10.95;3.60;;;13.80;99.90;;;;;;6242101;23;20004;-76
2023/10/04 01:05:04;;;;;;;8.05;2.65;;;13.80;99.90;;;;;;6241164;23;20299;-76
2023/10/04 01:07:31;;;;;;;10.43;3.42;;;13.80;99.90;;;;;;6242138;23;20006;-76
2023/10/04 01:09:56;;;;;;;10.80;3.30;;;13.70;99.90;;;;;;6241894;23;20008;-76
2023/10/04 01:12:23;;;;;;;9.85;3.17;;;13.80;99.90;;;;;;6241915;23;20011;-76
2023/10/04 01:14:49;;;;;;;10.15;3.40;;;13.80;99.90;;;;;;6242096;23;20307;-76
2023/10/04 01:17:15;;;;;;;8.82;3.53;;;13.70;99.90;;;;;;6241970;23;20321;-76
2023/10/04 01:19:42;;;;;;;14.70;3.95;;;13.70;99.90;;;;;;6241244;23;20003;-76
2023/10/04 01:22:07;;;;;;;8.23;3.25;;;13.70;99.90;;;;;;6242007;23;19996;-77
2023/10/04 01:24:34;;;;;;;11.93;3.17;;;13.80;99.90;;;;;;6242145;23;20000;-76
2023/10/04 01:27:00;;;;;;;10.23;3.55;;;13.70;99.90;;;;;;6241768;23;20001;-76
2023/10/04 01:29:25;;;;;;;7.38;2.97;;;13.80;99.90;;;;;;6241499;23;20459;-76
2023/10/04 01:31:52;;;;;;;11.00;3.85;;;13.80;99.90;;;;;;6242043;23;20000;-76
2023/10/04 01:34:18;;;;;;;10.40;3.67;;;13.80;99.90;;;;;;6214365;23;20393;-76
2023/10/04 01:36:43;;;;;;;8.20;3.95;;;13.80;99.90;;;;;;6241544;23;20028;-76
2023/10/04 01:39:16;;;;;;;7.18;3.20;;;13.80;99.90;;;;;;6241725;23;20004;-75
2023/10/04 01:41:41;;;;;;;11.93;3.05;;;13.80;99.90;;;;;;6241455;23;20016;-76
2023/10/04 01:44:09;;;;;;;10.57;3.28;;;13.80;99.90;;;;;;6241793;23;20050;-76
2023/10/04 01:46:37;;;;;;;7.72;2.80;;;13.80;99.90;;;;;;6241679;23;20004;-76
2023/10/04 01:49:03;;;;;;;8.50;3.28;;;13.80;99.90;;;;;;6240414;23;20015;-75
2023/10/04 01:51:29;;;;;;;10.25;3.50;;;13.80;99.90;;;;;;6241865;23;19996;-76
2023/10/04 01:53:58;;;;;;;5.32;2.70;;;13.80;99.90;;;;;;6241372;23;20002;-76
2023/10/04 01:56:24;;;;;;;9.05;3.50;;;13.80;99.90;;;;;;6241568;23;20028;-76
2023/10/04 01:58:49;;;;;;;7.28;3.60;;;13.80;99.90;;;;;;6241403;23;20422;-75
2023/10/04 02:01:15;;;;;;;9.00;3.67;;;13.80;99.90;;;;;;6241527;23;20027;-75
2023/10/04 02:03:41;;;;;;;11.60;4.32;;;13.80;99.90;;;;;;6241094;23;20000;-76
2023/10/04 02:06:08;;;;;;;6.38;3.45;;;13.80;99.90;;;;;;6214414;23;20509;-75
2023/10/04 02:08:34;;;;;;;7.38;3.75;;;13.80;99.90;;;;;;6241747;23;20368;-76
2023/10/04 02:11:00;;;;;;;10.18;3.83;;;13.80;99.90;;;;;;6241171;23;20057;-76
2023/10/04 02:13:27;;;;;;;12.13;4.25;;;13.80;99.90;;;;;;6214715;23;20039;-76
2023/10/04 02:15:54;;;;;;;10.63;4.38;;;13.80;99.90;;;;;;6240687;23;20433;-76
2023/10/04 02:18:21;;;;;;;12.10;3.70;;;13.90;99.90;;;;;;6214562;23;20092;-75
2023/10/04 02:20:48;;;;;;;11.02;3.30;;;13.90;99.90;;;;;;6241124;23;20003;-76
2023/10/04 02:23:16;;;;;;;10.82;4.13;;;13.90;99.90;;;;;;6241106;23;20440;-76
2023/10/04 02:25:42;;;;;;;9.55;3.70;;;13.90;99.90;;;;;;6214446;23;20008;-76
2023/10/04 02:28:23;;;;;;;12.00;4.50;;;13.90;99.90;;;;;;6241051;23;20329;-76
2023/10/04 02:30:49;;;;;;;6.22;3.25;;;13.90;99.90;;;;;;6240859;23;20004;-76
2023/10/04 02:33:15;;;;;;;7.50;3.55;;;13.90;99.90;;;;;;6241328;23;20004;-75
2023/10/04 02:35:46;;;;;;;10.80;3.75;;;14.00;99.90;;;;;;6214501;23;20005;-76
2023/10/04 02:38:49;;;;;;;6.40;3.42;;;13.90;99.90;;;;;;6240889;23;20007;-76
2023/10/04 02:41:10;;;;;;;10.40;3.10;;;14.00;99.90;;;;;;6235849;23;20018;-76
2023/10/04 02:43:37;;;;;;;9.32;4.10;;;14.00;99.90;;;;;;6240650;23;20122;-75
2023/10/04 02:46:03;;;;;;;8.18;4.30;;;14.00;99.90;;;;;;6239886;23;20011;-75
2023/10/04 02:48:34;;;;;;;11.13;3.83;;;14.00;99.90;;;;;;6214498;23;20000;-76
2023/10/04 02:51:00;;;;;;;8.18;3.63;;;14.00;99.90;;;;;;6214245;23;20422;-75
2023/10/04 02:53:27;;;;;;;9.95;3.97;;;14.00;99.90;;;;;;6241110;23;19996;-76
2023/10/04 02:55:57;;;;;;;7.85;3.47;;;14.00;99.90;;;;;;6214119;23;20008;-75
2023/10/04 02:58:23;;;;;;;11.55;3.78;;;14.00;99.90;;;;;;6242020;23;20071;-75
2023/10/04 03:00:50;;;;;;;9.23;2.97;;;14.00;99.90;;;;;;6215218;23;20016;-76
2023/10/04 03:03:22;;;;;;;11.98;3.80;;;14.00;99.90;;;;;;6243255;23;20075;-75
2023/10/04 03:05:51;;;;;;;12.23;3.58;;;13.90;99.90;;;;;;6242975;23;20051;-75
2023/10/04 03:08:17;;;;;;;10.70;3.57;;;13.90;99.90;;;;;;6243220;23;20071;-76
2023/10/04 03:10:45;;;;;;;11.60;3.58;;;13.90;99.90;;;;;;6243035;23;20027;-76
2023/10/04 03:13:22;;;;;;;12.93;4.15;;;13.90;99.90;;;;;;6216053;23;20008;-75
2023/10/04 03:15:50;;;;;;;7.78;3.42;;;13.90;99.90;;;;;;6215313;23;20007;-76
2023/10/04 03:18:18;;;;;;;8.13;3.30;;;13.90;99.90;;;;;;6243177;23;20004;-76
2023/10/04 03:23:26;;;;;;;12.60;3.58;;;13.80;99.90;;;;;;6253736;23;20111;-76
2023/10/04 03:25:53;;;;;;;6.07;3.20;;;13.80;99.90;;;;;;6216143;23;20042;-76
2023/10/04 03:28:21;;;;;;;9.10;3.53;;;13.70;99.90;;;;;;6242582;23;20000;-76
2023/10/04 03:30:50;;;;;;;6.30;2.47;;;13.70;99.90;;;;;;6242931;23;19996;-76
2023/10/04 03:33:16;;;;;;;9.32;3.65;;;13.70;99.90;;;;;;6216193;23;20274;-76
2023/10/04 03:35:43;;;;;;;7.78;2.75;;;13.70;99.90;;;;;;6242781;23;20004;-76
2023/10/04 03:38:09;;;;;;;10.43;3.70;;;13.70;99.90;;;;;;6215807;23;20003;-76
2023/10/04 03:40:35;;;;;;;6.30;3.80;;;13.60;99.90;;;;;;6216239;23;20023;-76
2023/10/04 03:43:06;;;;;;;9.77;3.53;;;13.60;99.90;;;;;;6242125;23;20004;-76
2023/10/04 03:45:37;;;;;;;8.30;3.28;;;13.60;99.90;;;;;;6243292;23;20015;-76
2023/10/04 03:48:05;;;;;;;10.00;3.07;;;13.50;99.90;;;;;;6242741;23;20030;-76
2023/10/04 03:50:31;;;;;;;7.85;3.75;;;13.50;99.90;;;;;;6243085;23;20054;-76
2023/10/04 03:52:59;;;;;;;8.13;3.47;;;13.50;99.90;;;;;;6242575;23;20368;-76
2023/10/04 03:55:28;;;;;;;7.00;3.80;;;13.40;99.90;;;;;;6215879;23;20004;-75
2023/10/04 03:57:54;;;;;;;10.15;3.17;;;13.50;99.90;;;;;;6241960;23;20000;-76
2023/10/04 04:00:22;;;;;;;10.90;3.40;;;13.50;99.90;;;;;;6243026;23;20004;-76
2023/10/04 04:02:49;;;;;;;13.07;3.58;;;13.40;99.90;;;;;;6242634;23;20000;-76
2023/10/04 04:05:15;;;;;;;12.32;4.05;;;13.40;99.90;;;;;;6242723;23;20010;-76
2023/10/04 04:07:43;;;;;;;8.20;3.50;;;13.40;99.90;;;;;;6215650;23;20075;-76
2023/10/04 04:10:14;;;;;;;10.32;3.10;;;13.30;99.90;;;;;;6242167;23;20011;-76
2023/10/04 04:12:41;;;;;;;11.15;4.25;;;13.30;99.90;;;;;;6242161;23;20030;-76
2023/10/04 04:15:14;;;;;;;11.15;4.03;;;13.30;99.90;;;;;;6242348;23;20118;-76
2023/10/04 04:17:41;;;;;;;11.05;3.30;;;13.30;99.90;;;;;;6242473;23;20318;-76
2023/10/04 04:20:17;;;;;;;11.73;3.70;;;13.30;99.90;;;;;;6215471;23;20008;-76
2023/10/04 04:22:53;;;;;;;10.88;3.53;;;13.20;99.90;;;;;;6242360;23;20004;-76
2023/10/04 04:25:23;;;;;;;10.95;3.90;;;13.20;99.90;;;;;;6242431;23;20008;-76
2023/10/04 04:27:50;;;;;;;8.40;3.88;;;13.20;99.90;;;;;;6241744;23;20000;-76
2023/10/04 04:30:28;;;;;;;8.95;4.38;;;13.20;99.90;;;;;;6215180;23;20079;-76
2023/10/04 04:32:57;;;;;;;8.23;3.72;;;13.20;99.90;;;;;;6242274;23;20448;-76
2023/10/04 04:40:49;;;;;;;10.15;3.28;;;13.10;99.90;;;;;;6247964;23;20035;-76
2023/10/04 04:43:26;;;;;;;10.00;3.67;;;13.10;99.90;;;;;;6242046;23;20000;-76
2023/10/04 04:45:59;;;;;;;9.65;3.83;;;13.10;99.90;;;;;;6242037;23;20000;-76
2023/10/04 04:48:26;;;;;;;9.93;3.42;;;13.10;99.90;;;;;;6242420;23;19999;-76
2023/10/04 04:50:57;;;;;;;11.43;3.42;;;13.10;99.90;;;;;;6241977;23;20054;-76
2023/10/04 04:53:24;;;;;;;16.92;4.50;;;13.00;99.90;;;;;;6242412;23;20004;-75
2023/10/04 04:55:50;;;;;;;10.60;3.10;;;13.10;99.90;;;;;;6241308;23;20000;-76
2023/10/04 04:58:18;;;;;;;8.90;3.47;;;13.00;99.90;;;;;;6215123;23;20319;-75
2023/10/04 05:00:44;;;;;;;9.88;3.10;;;13.00;99.90;;;;;;6241977;23;20000;-76
2023/10/04 05:03:11;;;;;;;11.13;4.25;;;13.00;99.90;;;;;;6215302;23;20046;-76
2023/10/04 05:05:39;;;;;;;10.00;3.85;;;12.90;99.90;;;;;;6242080;23;19996;-76
2023/10/04 05:08:05;;;;;;;8.05;3.33;;;12.90;99.90;;;;;;6215034;23;20054;-76
2023/10/04 05:10:38;;;;;;;7.55;3.55;;;12.90;99.90;;;;;;6214444;23;20083;-76
2023/10/04 05:13:13;;;;;;;8.25;3.60;;;12.90;99.90;;;;;;6238133;23;20107;-75
2023/10/04 05:15:42;;;;;;;13.25;4.53;;;12.80;99.90;;;;;;6239328;23;20023;-76
2023/10/04 05:18:15;;;;;;;7.53;3.30;;;12.80;99.90;;;;;;6240499;23;20495;-76
2023/10/04 05:20:41;;;;;;;7.85;3.72;;;12.80;99.90;;;;;;6240391;23;20439;-76
2023/10/04 05:23:09;;;;;;;12.48;4.53;;;12.80;99.90;;;;;;6241750;23;20000;-76
2023/10/04 05:25:34;;;;;;;11.98;4.95;;;12.80;99.90;;;;;;6214744;23;20000;-76
2023/10/04 05:28:04;;;;;;;10.63;4.22;;;12.80;99.90;;;;;;6241918;23;20054;-76
2023/10/04 05:30:30;;;;;;;10.60;4.28;;;12.80;99.90;;;;;;6215131;23;20319;-76
2023/10/04 05:32:56;;;;;;;7.03;3.38;;;12.80;99.90;;;;;;6241702;23;20000;-76
2023/10/04 05:35:22;;;;;;;8.88;5.38;;;12.80;99.90;;;;;;6242049;23;20015;-76
2023/10/04 05:37:48;;;;;;;15.27;4.32;;;12.80;99.90;;;;;;6214560;23;20004;-76
2023/10/04 05:40:16;;;;;;;11.57;4.75;;;12.80;99.90;;;;;;6213994;23;20023;-76
2023/10/04 05:42:46;;;;;;;12.00;4.03;;;12.80;99.90;;;;;;6241360;23;20010;-76
2023/10/04 05:45:12;;;;;;;11.73;4.57;;;12.80;99.90;;;;;;6241428;23;20075;-76
2023/10/04 05:47:39;;;;;;;9.27;4.55;;;12.80;99.90;;;;;;6214856;23;20011;-76
2023/10/04 05:50:10;;;;;;;10.15;4.43;;;12.80;99.90;;;;;;6241543;23;20000;-76
2023/10/04 05:52:36;;;;;;;11.50;4.82;;;12.80;99.90;;;;;;6214949;23;20049;-76
2023/10/04 05:55:01;;;;;;;11.20;4.80;;;12.70;99.90;;;;;;6213702;23;20001;-76
2023/10/04 05:57:28;;;;;;;11.88;5.28;;;12.70;99.90;;;;;;6214825;23;20000;-76
2023/10/04 05:59:54;;;;;;;11.80;4.75;;;12.70;99.90;;;;;;6214704;23;20008;-76
2023/10/04 06:02:20;;;;;;;13.63;4.80;;;12.70;99.90;;;;;;6241283;23;20321;-76
2023/10/04 06:04:47;;;;;;;11.10;4.43;;;12.70;99.90;;;;;;6241578;23;20077;-76
2023/10/04 06:07:13;;;;;;;8.73;4.65;;;12.70;99.90;;;;;;6214577;23;20035;-71
2023/10/04 06:09:42;;;;;;;11.20;5.15;;;12.70;99.90;;;;;;6241175;23;20000;-72
2023/10/04 06:12:11;;;;;;;12.45;5.53;;;12.70;99.90;;;;;;6241327;23;20049;-72
2023/10/04 06:14:37;;;;;;;10.43;5.28;;;12.70;99.90;;;;;;6241733;23;20322;-72
2023/10/04 06:17:07;;;;;;;7.53;4.40;;;12.80;99.90;;;;;;6241358;23;19996;-72
2023/10/04 06:19:32;;;;;;;12.50;5.60;;;12.70;99.90;;;;;;6241682;23;20015;-72
2023/10/04 06:21:58;;;;;;;7.70;4.45;;;12.80;99.90;;;;;;6241153;23;20012;-72
2023/10/04 06:24:23;;;;;;;14.57;5.55;;;12.80;99.90;;;;;;6241138;23;20079;-72
2023/10/04 06:26:49;;;;;;;11.80;5.25;;;12.80;99.90;;;;;;6241358;23;20401;-73
2023/10/04 06:29:14;;;;;;;14.52;6.28;;;12.80;99.90;;;;;;6241271;23;20028;-72
2023/10/04 06:31:41;;;;;;;11.07;5.75;;;12.80;99.90;;;;;;6241112;23;20004;-73
2023/10/04 06:34:07;;;;;;;11.23;5.78;;;12.80;99.90;;;;;;6243005;23;20410;-73
2023/10/04 06:36:33;;;;;;;15.07;7.38;;;12.90;99.90;;;;;;6243853;23;20023;-72
2023/10/04 06:38:59;;;;;;;10.95;5.03;;;12.90;99.90;;;;;;6216114;23;20046;-72
2023/10/04 06:41:26;;;;;;;12.05;5.40;;;12.90;99.90;;;;;;6243030;23;20012;-72
2023/10/04 06:43:52;;;;;;;14.32;5.32;;;12.90;99.90;;;;;;6243211;23;20000;-72
2023/10/04 06:46:17;;;;;;;17.20;5.70;;;13.00;99.90;;;;;;6243074;23;20080;-72
2023/10/04 06:48:45;;;;;;;15.00;6.15;;;13.00;99.90;;;;;;6243259;23;20000;-72
2023/10/04 06:51:11;;;;;;;11.68;6.32;;;13.00;99.90;;;;;;6243417;23;19996;-72
2023/10/04 06:53:41;;;;;;;14.85;5.93;;;13.10;99.90;;;;;;6243058;23;20007;-72
2023/10/04 06:56:07;;;;;;;15.30;5.68;;;13.10;99.90;;;;;;6243106;23;20422;-72
2023/10/04 06:58:32;;;;;;;13.80;5.75;;;13.10;99.90;;;;;;6240331;23;20007;-72
2023/10/04 07:00:58;;;;;;;11.82;5.78;;;13.10;99.90;;;;;;6242957;23;20073;-72
2023/10/04 07:03:26;;;;;;;16.60;6.00;;;13.10;99.90;;;;;;6242932;23;20369;-72
2023/10/04 07:05:51;;;;;;;16.80;5.80;;;13.20;99.90;;;;;;6241102;23;19996;-72
2023/10/04 07:08:17;;;;;;;14.15;6.90;;;13.20;99.90;;;;;;6242943;23;20042;-72
2023/10/04 07:10:45;;;;;;;14.05;5.78;;;13.20;99.90;;;;;;6242607;23;20038;-71
2023/10/04 07:13:10;;;;;;;16.08;5.88;;;13.20;99.90;;;;;;6242305;23;19996;-72
2023/10/04 07:15:39;;;;;;;11.05;5.95;;;13.30;99.90;;;;;;6241996;23;20072;-72
2023/10/04 07:18:06;;;;;;;13.23;6.50;;;13.30;99.90;;;;;;6241580;23;20031;-72
2023/10/04 07:20:32;;;;;;;20.10;5.70;;;13.30;99.90;;;;;;6242744;23;19996;-72
2023/10/04 07:22:58;;;;;;;9.15;5.53;;;13.40;99.90;;;;;;6242548;23;20441;-72
2023/10/04 07:25:28;;;;;;;12.02;5.75;;;13.40;99.90;;;;;;6241778;23;20011;-72
2023/10/04 07:27:55;;;;;;;11.60;6.63;;;13.50;99.90;;;;;;6240214;23;20109;-72
2023/10/04 07:30:22;;;;;;;11.98;5.25;;;13.50;99.90;;;;;;6242247;23;20014;-71
2023/10/04 07:32:48;;;;;;;10.10;5.63;;;13.50;99.90;;;;;;6242500;23;20130;-72
2023/10/04 07:35:18;;;;;;;11.93;5.60;;;13.60;99.90;;;;;;6241905;23;20007;-72
2023/10/04 07:37:44;;;;;;;11.13;5.80;;;13.60;99.90;;;;;;6241679;23;20070;-72
2023/10/04 07:40:14;;;;;;;14.85;5.70;;;13.70;99.90;;;;;;6240975;23;20016;-72
2023/10/04 07:42:41;;;;;;;15.68;6.07;;;13.70;99.90;;;;;;6242215;23;20418;-72
2023/10/04 07:45:08;;;;;;;10.00;4.93;;;13.80;99.90;;;;;;6241644;23;19996;-72
2023/10/04 07:47:36;;;;;;;11.60;4.57;;;13.80;99.90;;;;;;6242278;23;20000;-71
2023/10/04 07:50:03;;;;;;;14.73;6.15;;;13.90;99.90;;;;;;6239804;23;20004;-72
2023/10/04 07:52:29;;;;;;;9.93;5.55;;;13.90;99.90;;;;;;6242650;23;20000;-71
2023/10/04 07:54:57;;;;;;;11.18;5.35;;;14.00;99.90;;;;;;6242339;23;20000;-72
2023/10/04 07:57:22;;;;;;;11.98;5.15;;;14.00;99.90;;;;;;6242311;23;20050;-73
2023/10/04 07:59:48;;;;;;;11.23;5.20;;;14.10;99.90;;;;;;6241153;23;20012;-73
2023/10/04 08:02:13;;;;;;;16.23;6.15;;;14.20;99.90;;;;;;6241133;23;19996;-73
2023/10/04 08:04:39;;;;;;;7.38;4.57;;;14.20;99.90;;;;;;6241757;23;20007;-73
2023/10/04 08:07:12;;;;;;;10.98;5.60;;;14.30;99.90;;;;;;6242348;23;19997;-73
2023/10/04 08:09:38;;;;;;;14.77;6.05;;;14.40;99.90;;;;;;6242590;23;20011;-73
2023/10/04 08:12:07;;;;;;;12.57;5.10;;;14.50;99.90;;;;;;6240777;23;20384;-73
2023/10/04 08:14:33;;;;;;;12.73;7.20;;;14.50;99.90;;;;;;6241817;23;20004;-73
2023/10/04 08:16:59;;;;;;;14.02;6.85;;;14.70;99.90;;;;;;6242101;23;20377;-73
2023/10/04 08:19:26;;;;;;;13.88;6.25;;;14.70;99.90;;;;;;6241625;23;20000;-73
2023/10/04 08:21:51;;;;;;;10.63;5.13;;;14.80;99.90;;;;;;6240807;23;20004;-73
2023/10/04 08:24:17;;;;;;;10.15;5.38;;;14.90;99.90;;;;;;6241461;23;20007;-73
2023/10/04 08:26:43;;;;;;;19.08;6.10;;;14.90;99.90;;;;;;6241776;23;20004;-73
2023/10/04 08:29:10;;;;;;;12.88;6.38;;;15.10;99.90;;;;;;6214588;23;20625;-73
2023/10/04 08:31:36;;;;;;;11.20;5.25;;;15.30;99.90;;;;;;6241970;23;19992;-73
2023/10/04 08:34:03;;;;;;;14.70;5.65;;;15.40;99.90;;;;;;6239624;23;20542;-73
2023/10/04 08:36:28;;;;;;;17.15;5.97;;;15.40;99.90;;;;;;6242409;23;20000;-73
2023/10/04 08:38:54;;;;;;;12.40;6.03;;;15.50;99.90;;;;;;6241453;23;20011;-73
2023/10/04 08:41:20;;;;;;;13.38;5.28;;;15.50;99.90;;;;;;6241276;23;20016;-73
2023/10/04 08:43:47;;;;;;;12.15;4.78;;;15.60;99.90;;;;;;6240970;23;19997;-73
2023/10/04 08:46:16;;;;;;;11.38;5.80;;;15.70;99.90;;;;;;6214271;23;20111;-73
2023/10/04 08:48:49;;;;;;;10.75;5.35;;;15.70;99.90;;;;;;6241083;23;20018;-73
2023/10/04 08:51:27;;;;;;;13.68;4.70;;;15.80;99.90;;;;;;6215264;23;20421;-73
2023/10/04 08:54:08;;;;;;;16.38;5.78;;;15.90;99.90;;;;;;6241940;23;20364;-73
2023/10/04 08:56:47;;;;;;;15.77;5.65;;;15.90;99.90;;;;;;6240199;23;20069;-73
2023/10/04 08:59:13;;;;;;;14.15;5.90;;;15.90;99.90;;;;;;6241758;23;20011;-73
2023/10/04 09:01:40;;;;;;;18.35;6.25;;;15.90;99.90;;;;;;6214658;23;20000;-73
2023/10/04 09:04:07;;;;;;;11.23;5.10;;;16.00;99.90;;;;;;6241164;23;20091;-73
2023/10/04 09:06:32;;;;;;;21.02;6.07;;;16.00;99.90;;;;;;6240611;23;20018;-72
2023/10/04 09:08:58;;;;;;;11.73;5.05;;;16.10;99.90;;;;;;6241605;23;20330;-72
2023/10/04 09:11:25;;;;;;;10.85;4.60;;;16.20;99.90;;;;;;6241622;23;20000;-73
2023/10/04 09:13:52;;;;;;;16.20;5.40;;;16.20;99.90;;;;;;6214412;23;20091;-72
2023/10/04 09:16:20;;;;;;;10.02;4.93;;;16.20;99.90;;;;;;6214498;23;20058;-72
2023/10/04 09:18:45;;;;;;;13.52;5.20;;;16.30;99.90;;;;;;6239553;23;20004;-73
2023/10/04 09:21:17;;;;;;;12.85;4.82;;;16.30;99.90;;;;;;6241920;23;20008;-73
2023/10/04 09:23:46;;;;;;;13.00;5.40;;;16.30;99.90;;;;;;6241226;23;20062;-73
2023/10/04 09:26:16;;;;;;;14.45;4.63;;;16.40;99.90;;;;;;6241208;23;20011;-72
2023/10/04 09:28:41;;;;;;;9.68;5.10;;;16.40;99.90;;;;;;6239788;23;20084;-73
2023/10/04 09:31:12;;;;;;;13.98;4.88;;;16.40;99.90;;;;;;6240784;23;20433;-73
2023/10/04 09:33:38;;;;;;;9.82;4.55;;;16.50;99.90;;;;;;6241693;23;20000;-73
2023/10/04 09:36:04;;;;;;;15.35;4.75;;;16.60;99.90;;;;;;6241515;23;20046;-72
2023/10/04 09:38:35;;;;;;;13.80;4.32;;;16.60;99.90;;;;;;6240364;23;20008;-72
2023/10/04 09:41:01;;;;;;;14.43;5.60;;;16.70;99.90;;;;;;6240117;23;20016;-72
2023/10/04 09:43:37;;;;;;;12.88;5.85;;;16.80;99.90;;;;;;6240283;23;20004;-72
2023/10/04 09:46:09;;;;;;;15.45;4.75;;;16.90;99.90;;;;;;6238836;23;20448;-72
2023/10/04 09:48:43;;;;;;;12.77;3.97;;;16.90;99.90;;;;;;6241079;23;20024;-72
2023/10/04 09:51:09;;;;;;;13.63;4.63;;;17.00;99.90;;;;;;6239371;23;20000;-72
2023/10/04 09:53:38;;;;;;;11.02;5.03;;;17.10;99.90;;;;;;6241089;23;20394;-72
2023/10/04 09:56:04;;;;;;;11.02;4.22;;;17.20;99.90;;;;;;6239562;23;20043;-72
2023/10/04 09:58:32;;;;;;;11.48;4.30;;;17.30;99.90;;;;;;6240893;23;20004;-72
2023/10/04 10:01:11;;;;;;;12.30;4.07;;;17.30;99.90;;;;;;6237980;23;20180;-72
2023/10/04 10:03:55;;;;;;;11.00;3.95;;;17.40;99.90;;;;;;6240971;23;20422;-72
2023/10/04 10:06:22;;;;;;;11.27;4.03;;;17.50;99.90;;;;;;6241361;23;20420;-72
2023/10/04 10:08:52;;;;;;;11.35;4.20;;;17.60;99.90;;;;;;6240522;23;20075;-72
2023/10/04 10:11:18;;;;;;;13.55;4.78;;;17.60;99.90;;;;;;6239513;23;20091;-72
2023/10/04 10:13:45;;;;;;;11.70;4.45;;;17.60;99.90;;;;;;6211974;23;20028;-72
2023/10/04 10:16:11;;;;;;;17.15;4.93;;;17.70;99.90;;;;;;6239708;23;20004;-72
2023/10/04 10:18:38;;;;;;;10.80;3.88;;;17.70;99.90;;;;;;6240143;23;20026;-72
2023/10/04 10:21:04;;;;;;;8.93;4.55;;;17.80;99.90;;;;;;6239955;23;19996;-72
2023/10/04 10:23:29;;;;;;;11.02;4.32;;;17.80;99.90;;;;;;6240023;23;19996;-73
2023/10/04 10:26:18;;;;;;;9.65;4.70;;;17.90;99.90;;;;;;6240594;23;20004;-72
2023/10/04 10:28:47;;;;;;;13.13;4.55;;;18.00;99.90;;;;;;6240485;23;20083;-72
2023/10/04 10:31:20;;;;;;;11.02;4.10;;;18.00;99.90;;;;;;6240195;23;20008;-72
2023/10/04 10:33:47;;;;;;;11.52;3.65;;;18.00;99.90;;;;;;6240484;23;20004;-72
2023/10/04 10:36:27;;;;;;;9.75;4.43;;;18.00;99.90;;;;;;6240637;23;20011;-72
2023/10/04 10:38:54;;;;;;;11.65;4.85;;;18.00;99.90;;;;;;6241189;23;20008;-72
2023/10/04 10:41:31;;;;;;;13.18;4.93;;;18.00;99.90;;;;;;6240033;22;20023;-73
2023/10/04 10:44:23;;;;;;;15.15;5.13;;;18.10;99.90;;;;;;6213343;23;20008;-73
2023/10/04 10:47:25;;;;;;;10.75;5.00;;;18.10;99.90;;;;;;6240512;23;20425;-72
2023/10/04 10:50:01;;;;;;;13.55;4.65;;;18.20;99.90;;;;;;6212985;23;20449;-73
2023/10/04 10:52:31;;;;;;;11.68;4.80;;;18.20;99.90;;;;;;6241332;23;20011;-72
2023/10/04 10:54:58;;;;;;;10.80;4.93;;;18.30;99.90;;;;;;6241287;23;20000;-73
2023/10/04 10:57:29;;;;;;;11.10;5.28;;;18.40;99.90;;;;;;6241146;23;20000;-73
2023/10/04 10:59:56;;;;;;;12.82;4.88;;;18.30;99.90;;;;;;6240471;23;19999;-73
2023/10/04 11:02:24;;;;;;;11.65;5.32;;;18.30;99.90;;;;;;6214414;23;20012;-72
2023/10/04 11:04:50;;;;;;;13.68;4.57;;;18.30;99.90;;;;;;6241196;23;20058;-72
2023/10/04 11:07:17;;;;;;;10.18;4.50;;;18.40;99.90;;;;;;6240984;23;20008;-72
2023/10/04 11:09:52;;;;;;;12.05;4.30;;;18.50;99.90;;;;;;6241029;23;20110;-73
2023/10/04 11:12:21;;;;;;;11.63;4.78;;;18.50;99.90;;;;;;6241034;23;19996;-73
2023/10/04 11:14:47;;;;;;;12.73;5.05;;;18.60;99.90;;;;;;6240971;23;20000;-72
2023/10/04 11:17:14;;;;;;;9.15;3.72;;;18.70;99.90;;;;;;6240908;23;20528;-73
2023/10/04 11:19:41;;;;;;;11.45;4.18;;;18.70;99.90;;;;;;6242180;23;20484;-72
2023/10/04 11:22:10;;;;;;;10.68;4.28;;;18.80;99.90;;;;;;6242891;23;20004;-72
2023/10/04 11:24:36;;;;;;;10.60;4.18;;;18.80;99.90;;;;;;6243275;23;20031;-73
2023/10/04 11:27:03;;;;;;;11.73;4.40;;;18.90;99.90;;;;;;6215311;23;20004;-73
2023/10/04 11:29:30;;;;;;;7.68;3.75;;;18.90;99.60;;;;;;6243120;23;20012;-73
2023/10/04 11:31:58;;;;;;;12.68;4.88;;;18.80;99.50;;;;;;6242717;23;20008;-73
2023/10/04 11:34:26;;;;;;;9.60;4.72;;;18.70;99.30;;;;;;6216059;23;20007;-72
2023/10/04 11:36:58;;;;;;;9.60;4.15;;;18.70;99.10;;;;;;6243110;23;20000;-73
2023/10/04 11:39:34;;;;;;;10.87;4.17;;;18.70;99.10;;;;;;6243044;23;20074;-72
2023/10/04 11:42:02;;;;;;;12.43;5.78;;;18.70;99.00;;;;;;6242027;23;20325;-73
2023/10/04 11:44:29;;;;;;;13.75;5.40;;;18.60;99.00;;;;;;6216100;23;20430;-72
2023/10/04 11:47:00;;;;;;;11.73;4.53;;;18.70;98.90;;;;;;6242708;23;20011;-73
2023/10/04 11:49:29;;;;;;;10.80;4.40;;;18.70;99.00;;;;;;6242623;23;20034;-72
2023/10/04 11:51:59;;;;;;;10.75;4.57;;;18.80;99.20;;;;;;6242703;23;20032;-73
2023/10/04 11:54:45;;;;;;;12.98;5.13;;;18.80;98.50;;;;;;6216222;23;20080;-72
2023/10/04 11:57:11;;;;;;;9.30;3.92;;;18.80;98.30;;;;;;6241929;23;20414;-72
2023/10/04 11:59:37;;;;;;;11.13;4.88;;;18.80;98.30;;;;;;6242872;23;20028;-73
2023/10/04 12:02:04;;;;;;;11.27;4.50;;;18.90;98.20;;;;;;6242238;23;20035;-73
2023/10/04 12:04:31;;;;;;;8.55;4.25;;;18.90;98.00;;;;;;6242398;23;20325;-72
2023/10/04 12:07:09;;;;;;;10.70;4.47;;;18.90;97.80;;;;;;6242657;23;20000;-72
2023/10/04 12:09:36;;;;;;;14.23;5.82;;;18.90;97.60;;;;;;6242771;23;20023;-72
2023/10/04 12:12:05;;;;;;;13.02;4.72;;;18.90;97.50;;;;;;6214790;23;20000;-72
2023/10/04 12:14:34;;;;;;;11.73;4.95;;;18.90;97.70;;;;;;6242767;23;20079;-73
2023/10/04 12:17:04;;;;;;;15.60;5.90;;;18.90;98.00;;;;;;6242395;23;20381;-73
2023/10/04 12:19:35;;;;;;;10.73;5.13;;;18.90;97.60;;;;;;6242791;23;20422;-73
2023/10/04 12:22:08;;;;;;;8.00;3.97;;;19.00;97.80;;;;;;6242512;23;19999;-73
2023/10/04 12:24:35;;;;;;;10.88;4.90;;;19.10;97.70;;;;;;6215628;23;19996;-73
2023/10/04 12:27:01;;;;;;;11.23;4.10;;;19.10;97.70;;;;;;6240094;23;20326;-73
2023/10/04 12:29:30;;;;;;;11.48;4.15;;;19.10;97.50;;;;;;6241605;23;20009;-73
2023/10/04 12:31:56;;;;;;;13.27;4.03;;;19.20;97.30;;;;;;6240746;23;20410;-73
2023/10/04 12:34:24;;;;;;;10.30;4.00;;;19.20;97.30;;;;;;6242099;23;20007;-73
2023/10/04 12:36:51;;;;;;;11.00;4.60;;;19.20;97.00;;;;;;6242058;23;20003;-72
2023/10/04 12:39:17;;;;;;;10.68;4.90;;;19.20;96.90;;;;;;6241551;23;20016;-73
2023/10/04 12:41:45;;;;;;;9.68;3.58;;;19.10;96.80;;;;;;6241235;23;20016;-73
2023/10/04 12:44:12;;;;;;;7.70;3.50;;;19.10;96.90;;;;;;6241951;23;20011;-73
2023/10/04 12:46:38;;;;;;;12.85;4.88;;;19.10;96.70;;;;;;6215377;23;20083;-73
2023/10/04 12:49:04;;;;;;;10.98;5.30;;;19.10;96.60;;;;;;6242063;23;20141;-73
2023/10/04 12:51:30;;;;;;;8.05;4.25;;;19.10;96.40;;;;;;6242138;23;20008;-73
2023/10/04 12:53:56;;;;;;;7.50;4.03;;;19.10;96.50;;;;;;6241283;23;20341;-72